Time;durP1;ratioP1;P1;durP2;ratioP2;P2;SDS_P1;SDS_P2;PMS_P1;PMS_P2;Temp;Humidity;BMP_temperature;BMP_pressure;BME280_temperature;BME280_humidity;BME280_pressure;Samples;Min_cycle;Max_cycle;Signal;HPM_P1;HPM_P2
2023/02/21 02:15:04;;;;;;;;;;;;;;;28.86;22.14;100576.16;5077061;28;1204;-18
2023/02/21 02:17:39;;;;;;;;;;;;;;;29.29;21.39;100566.16;5076497;28;1202;-18
2023/02/21 02:20:11;;;;;;;;;;;;;;;29.52;21.13;100578.53;5058735;28;1273;-18
2023/02/21 02:22:42;;;;;;;;;;;;;;;28.97;21.89;100580.19;5076224;28;1165;-18
2023/02/21 02:25:14;;;;;;;;;;;;;;;28.69;21.82;100583.72;5076224;28;1400;-18
2023/02/21 02:27:45;;;;;;;;;;;;;;;28.87;22.07;100585.94;5076013;28;1909;-19
2023/02/21 02:30:10;;;;;;;;;;;;;;;29.30;21.59;100593.06;5073492;28;1205;-18
2023/02/21 02:32:35;;;;;;;;;;;;;;;29.21;21.41;100584.25;5076055;28;1253;-18
2023/02/21 02:35:10;;;;;;;;;;;;;;;29.40;21.27;100587.25;5075915;28;1216;-18
2023/02/21 02:37:35;;;;;;;;;;;;;;;28.98;21.42;100594.56;5076057;28;1191;-18
2023/02/21 02:40:10;;;;;;;;;;;;;;;28.87;21.27;100591.34;5076095;28;1190;-18
2023/02/21 02:42:38;;;;;;;;;;;;;;;28.63;21.19;100590.75;5076241;28;1236;-18
2023/02/21 02:45:12;;;;;;;;;;;;;;;28.77;21.80;100591.69;5057575;28;1180;-18
2023/02/21 02:47:38;;;;;;;;;;;;;;;28.89;21.87;100585.72;5075926;28;1910;-18
2023/02/21 02:50:04;;;;;;;;;;;;;;;29.09;21.52;100572.34;5058285;28;1215;-19
2023/02/21 02:52:29;;;;;;;;;;;;;;;28.96;21.19;100575.78;5073848;28;1161;-18
2023/02/21 02:54:58;;;;;;;;;;;;;;;28.70;21.54;100586.25;5075925;28;1383;-18
2023/02/21 02:57:23;;;;;;;;;;;;;;;28.90;21.63;100579.25;5075475;28;1420;-18
2023/02/21 02:59:49;;;;;;;;;;;;;;;29.11;21.62;100577.53;5075509;28;1339;-18
2023/02/21 03:02:14;;;;;;;;;;;;;;;29.01;21.46;100567.09;5058404;28;1190;-20
2023/02/21 03:04:45;;;;;;;;;;;;;;;29.46;20.92;100566.66;5075433;28;1404;-18
2023/02/21 03:07:30;;;;;;;;;;;;;;;29.14;21.67;100569.88;5073662;28;1296;-18
2023/02/21 03:10:13;;;;;;;;;;;;;;;28.90;21.30;100566.56;5074952;28;1960;-18
2023/02/21 03:12:39;;;;;;;;;;;;;;;28.92;21.48;100545.56;5074404;28;1408;-18
2023/02/21 03:15:12;;;;;;;;;;;;;;;28.75;21.74;100564.00;5075158;28;1185;-19
2023/02/21 03:17:41;;;;;;;;;;;;;;;28.70;21.92;100566.44;5057216;28;1242;-18
2023/02/21 03:20:07;;;;;;;;;;;;;;;28.87;21.90;100566.97;5057705;28;1203;-18
2023/02/21 03:22:33;;;;;;;;;;;;;;;29.48;21.24;100566.44;5057315;28;1206;-20
2023/02/21 03:24:58;;;;;;;;;;;;;;;28.93;21.78;100568.88;5057477;28;1236;-18
2023/02/21 03:27:24;;;;;;;;;;;;;;;28.89;21.37;100559.50;5075034;28;1257;-18
2023/02/21 03:29:49;;;;;;;;;;;;;;;28.91;21.26;100565.53;5053534;28;1909;-19
2023/02/21 03:34:41;;;;;;;;;;;;;;;29.44;21.25;100557.88;5075418;28;1315;-18
2023/02/21 03:37:07;;;;;;;;;;;;;;;29.29;21.52;100568.88;5058344;28;1059;-18
2023/02/21 03:39:33;;;;;;;;;;;;;;;29.12;21.14;100579.22;5042035;28;1072;-18
2023/02/21 03:41:58;;;;;;;;;;;;;;;29.02;21.05;100568.75;5056782;28;915;-18
2023/02/21 03:44:23;;;;;;;;;;;;;;;28.69;21.88;100575.63;5069938;28;1132;-18
2023/02/21 03:46:48;;;;;;;;;;;;;;;28.64;22.22;100578.06;5072390;28;1176;-18
2023/02/21 03:49:14;;;;;;;;;;;;;;;28.82;21.83;100583.81;5065861;28;1898;-18
2023/02/21 03:51:39;;;;;;;;;;;;;;;29.06;21.80;100583.56;5066955;28;2448;-18
2023/02/21 03:54:04;;;;;;;;;;;;;;;28.69;21.27;100584.59;5055916;28;1989;-19
2023/02/21 03:56:30;;;;;;;;;;;;;;;27.61;20.97;100589.78;5057382;28;2080;-18
2023/02/21 03:58:55;;;;;;;;;;;;;;;27.64;21.26;100585.88;5058868;28;2034;-18
2023/02/21 04:01:20;;;;;;;;;;;;;;;28.67;20.09;100596.63;5069720;28;2082;-18
2023/02/21 04:03:45;;;;;;;;;;;;;;;28.82;20.11;100591.09;5069180;28;2098;-18
2023/02/21 04:06:11;;;;;;;;;;;;;;;29.01;19.65;100592.28;5063125;28;1805;-18
2023/02/21 04:08:36;;;;;;;;;;;;;;;28.82;19.57;100582.97;5067400;28;1906;-18
2023/02/21 04:11:01;;;;;;;;;;;;;;;28.54;19.67;100584.69;5044666;28;1079;-19
2023/02/21 04:13:27;;;;;;;;;;;;;;;27.65;20.42;100570.47;5066919;28;1043;-18
2023/02/21 04:15:52;;;;;;;;;;;;;;;27.42;20.68;100558.81;5069199;28;1072;-18
2023/02/21 04:18:17;;;;;;;;;;;;;;;28.34;20.25;100568.28;5074467;28;1057;-18
2023/02/21 04:20:44;;;;;;;;;;;;;;;28.93;19.38;100565.31;5075427;28;1251;-17
2023/02/21 04:23:10;;;;;;;;;;;;;;;29.13;19.17;100560.03;5075072;28;1207;-18
2023/02/21 04:25:35;;;;;;;;;;;;;;;28.76;19.47;100568.34;5075341;28;1251;-17
2023/02/21 04:28:00;;;;;;;;;;;;;;;28.26;19.80;100565.69;5057655;28;1921;-18
2023/02/21 04:30:26;;;;;;;;;;;;;;;28.06;20.16;100564.47;5074982;28;869;-18
2023/02/21 04:32:51;;;;;;;;;;;;;;;27.46;20.27;100554.69;5075471;28;972;-18
2023/02/21 04:35:16;;;;;;;;;;;;;;;27.85;20.53;100555.34;5068294;28;1912;-18
2023/02/21 04:37:43;;;;;;;;;;;;;;;28.60;19.73;100547.84;5074844;28;971;-17
2023/02/21 04:40:09;;;;;;;;;;;;;;;26.62;20.21;100543.19;5074831;28;1084;-17
2023/02/21 04:42:34;;;;;;;;;;;;;;;27.36;18.17;100546.06;5071541;28;1104;-18
2023/02/21 04:44:59;;;;;;;;;;;;;;;27.39;17.76;100554.59;5074827;28;1231;-18
2023/02/21 04:47:25;;;;;;;;;;;;;;;27.60;17.66;100552.13;5075245;28;1079;-18
2023/02/21 04:49:51;;;;;;;;;;;;;;;27.53;17.06;100552.06;5074254;28;1985;-18
2023/02/21 04:52:19;;;;;;;;;;;;;;;27.73;16.93;100543.38;5074776;28;1219;-17
2023/02/21 04:54:44;;;;;;;;;;;;;;;27.41;16.67;100553.59;5075052;28;965;-20
2023/02/21 04:57:10;;;;;;;;;;;;;;;26.13;17.93;100545.28;5074820;28;1072;-18
2023/02/21 04:59:35;;;;;;;;;;;;;;;26.67;17.80;100543.47;5074255;28;1028;-19
2023/02/21 05:02:00;;;;;;;;;;;;;;;27.53;16.80;100540.44;5075071;28;1000;-19
2023/02/21 05:04:25;;;;;;;;;;;;;;;27.57;17.29;100539.00;5074347;28;1146;-38
2023/02/21 05:06:51;;;;;;;;;;;;;;;27.82;15.79;100533.28;5072995;28;2525;-25
2023/02/21 05:09:16;;;;;;;;;;;;;;;28.23;15.69;100532.59;5074646;28;1901;-18
2023/02/21 05:11:41;;;;;;;;;;;;;;;27.71;15.51;100540.03;5074704;28;1133;-16
2023/02/21 05:14:07;;;;;;;;;;;;;;;24.74;17.08;100528.66;5075032;28;1108;-19
2023/02/21 05:16:32;;;;;;;;;;;;;;;24.71;18.33;100540.59;5075575;28;1183;-20
2023/02/21 05:18:57;;;;;;;;;;;;;;;25.35;18.35;100544.25;5074967;28;1067;-18
2023/02/21 05:21:22;;;;;;;;;;;;;;;25.52;19.08;100531.56;5074596;28;1114;-18
2023/02/21 05:23:57;;;;;;;;;;;;;;;25.70;19.23;100533.16;5074424;28;1111;-21
2023/02/21 05:26:23;;;;;;;;;;;;;;;26.94;18.08;100529.53;5075255;28;1124;-17
2023/02/21 05:28:48;;;;;;;;;;;;;;;27.38;18.08;100523.25;5063086;28;1906;-17
2023/02/21 05:31:14;;;;;;;;;;;;;;;27.93;17.54;100526.50;5074434;28;1019;-17
2023/02/21 05:33:39;;;;;;;;;;;;;;;28.26;17.56;100523.22;5074641;28;1476;-17
2023/02/21 05:36:04;;;;;;;;;;;;;;;27.96;17.81;100526.13;5075747;28;2345;-17
2023/02/21 05:38:30;;;;;;;;;;;;;;;27.41;18.61;100524.69;5078298;28;1034;-17
2023/02/21 05:40:55;;;;;;;;;;;;;;;26.83;19.45;100518.16;5078629;28;1038;-17
2023/02/21 05:43:20;;;;;;;;;;;;;;;27.62;18.90;100528.47;5078309;28;880;-16
2023/02/21 05:45:46;;;;;;;;;;;;;;;28.38;17.93;100518.16;5078229;28;1072;-19
2023/02/21 05:48:11;;;;;;;;;;;;;;;28.53;18.03;100525.34;5077951;28;1906;-20
2023/02/21 05:50:38;;;;;;;;;;;;;;;29.04;17.76;100528.78;5065057;28;1163;-19
2023/02/21 05:53:03;;;;;;;;;;;;;;;28.32;18.55;100527.03;5067119;28;1041;-17
2023/02/21 05:55:29;;;;;;;;;;;;;;;27.26;19.64;100530.13;5062743;28;881;-17
2023/02/21 05:57:54;;;;;;;;;;;;;;;26.89;20.13;100530.91;5062618;28;1111;-16
2023/02/21 06:00:22;;;;;;;;;;;;;;;26.75;20.36;100531.75;5067463;28;1095;-16
2023/02/21 06:02:48;;;;;;;;;;;;;;;26.64;20.60;100535.75;5062488;28;1028;-17
2023/02/21 06:05:14;;;;;;;;;;;;;;;26.66;20.64;100533.69;5078306;28;1123;-17
2023/02/21 06:07:39;;;;;;;;;;;;;;;26.55;20.79;100537.69;5061037;28;1131;-16
2023/02/21 06:10:04;;;;;;;;;;;;;;;26.54;21.43;100530.63;5058323;28;1959;-19
2023/02/21 06:12:30;;;;;;;;;;;;;;;26.66;21.40;100533.69;5061758;28;1100;-16
2023/02/21 06:14:55;;;;;;;;;;;;;;;26.68;21.35;100536.19;5078377;28;1086;-17
2023/02/21 06:17:20;;;;;;;;;;;;;;;26.63;21.23;100534.91;5064744;28;1447;-18
2023/02/21 06:19:45;;;;;;;;;;;;;;;26.82;20.80;100521.06;5077378;28;985;-19
2023/02/21 06:22:11;;;;;;;;;;;;;;;26.89;20.35;100524.69;5074514;28;1111;-18
2023/02/21 06:24:36;;;;;;;;;;;;;;;26.70;21.06;100526.91;5058113;28;1012;-19
2023/02/21 06:27:01;;;;;;;;;;;;;;;26.64;21.07;100524.97;5061467;28;1100;-17
2023/02/21 06:29:26;;;;;;;;;;;;;;;26.50;21.64;100524.78;5064307;28;1914;-18
2023/02/21 06:31:56;;;;;;;;;;;;;;;26.63;21.17;100531.38;5070565;28;941;-20
2023/02/21 06:34:21;;;;;;;;;;;;;;;26.55;21.90;100532.31;5058321;28;1021;-17
2023/02/21 06:36:50;;;;;;;;;;;;;;;26.38;21.84;100523.53;5070465;28;1064;-17
2023/02/21 06:39:15;;;;;;;;;;;;;;;26.13;21.79;100526.41;5070975;28;1160;-17
2023/02/21 06:41:40;;;;;;;;;;;;;;;26.51;21.39;100525.59;5060398;28;1139;-17
2023/02/21 06:44:05;;;;;;;;;;;;;;;26.51;21.68;100530.97;5063390;28;1338;-16
2023/02/21 06:46:31;;;;;;;;;;;;;;;26.46;21.67;100526.16;5061881;28;953;-17
2023/02/21 06:48:56;;;;;;;;;;;;;;;26.49;21.60;100527.66;5070927;28;1909;-16
2023/02/21 06:51:27;;;;;;;;;;;;;;;26.47;21.40;100533.22;5059752;28;838;-16
2023/02/21 06:53:53;;;;;;;;;;;;;;;26.46;21.36;100511.84;5066277;28;1541;-15
2023/02/21 06:56:18;;;;;;;;;;;;;;;26.55;23.25;100518.81;5073744;28;934;-17
2023/02/21 06:58:43;;;;;;;;;;;;;;;26.34;23.37;100519.53;5077375;28;1223;-18
2023/02/21 07:01:09;;;;;;;;;;;;;;;26.51;22.93;100512.09;5067735;28;1199;-18
2023/02/21 07:03:37;;;;;;;;;;;;;;;26.47;22.49;100518.91;5076512;28;1036;-18
2023/02/21 07:06:02;;;;;;;;;;;;;;;26.38;22.49;100527.06;5068648;28;1067;-18
2023/02/21 07:08:28;;;;;;;;;;;;;;;26.51;22.69;100520.19;5066031;28;1951;-18
2023/02/21 07:10:53;;;;;;;;;;;;;;;26.50;21.75;100521.22;5058600;28;1032;-17
2023/02/21 07:13:18;;;;;;;;;;;;;;;26.42;21.96;100519.47;5061534;28;3148;-20
2023/02/21 07:15:44;;;;;;;;;;;;;;;26.50;22.22;100521.22;5030927;28;5374;-20
2023/02/21 07:18:09;;;;;;;;;;;;;;;26.59;22.18;100506.63;5045983;28;1195;-22
2023/02/21 07:20:34;;;;;;;;;;;;;;;26.56;23.47;100516.97;5046765;28;1545;-21
2023/02/21 07:23:00;;;;;;;;;;;;;;;26.49;22.86;100506.88;5047495;28;1375;-19
2023/02/21 07:25:25;;;;;;;;;;;;;;;26.47;22.57;100508.09;5046829;28;1090;-19
2023/02/21 07:27:51;;;;;;;;;;;;;;;26.63;22.26;100512.47;5041206;28;1969;-19
2023/02/21 07:30:17;;;;;;;;;;;;;;;26.39;23.22;100509.03;5048712;28;1580;-19
2023/02/21 07:32:42;;;;;;;;;;;;;;;26.38;22.79;100500.09;5023147;28;2548;-20
2023/02/21 07:35:07;;;;;;;;;;;;;;;26.40;22.32;100492.69;5046679;28;1458;-20
2023/02/21 07:37:32;;;;;;;;;;;;;;;26.35;22.52;100502.31;5043165;28;1148;-19
2023/02/21 07:39:58;;;;;;;;;;;;;;;26.38;22.53;100497.41;5044814;28;1211;-25
2023/02/21 07:42:23;;;;;;;;;;;;;;;26.34;22.32;100492.56;5046436;28;1243;-20
2023/02/21 07:44:53;;;;;;;;;;;;;;;26.32;23.23;100494.56;5017905;28;11650;-18
2023/02/21 07:47:18;;;;;;;;;;;;;;;26.35;22.66;100491.53;4961742;28;10387;-19
2023/02/21 07:49:44;;;;;;;;;;;;;;;26.38;22.13;100491.16;4990785;28;1910;-16
2023/02/21 07:52:09;;;;;;;;;;;;;;;26.43;22.02;100486.06;4984540;28;1136;-16
2023/02/21 07:54:35;;;;;;;;;;;;;;;26.52;22.15;100470.63;4973883;28;3439;-16
2023/02/21 07:57:01;;;;;;;;;;;;;;;26.34;22.36;100474.50;4985275;28;2390;-17
2023/02/21 07:59:26;;;;;;;;;;;;;;;26.38;22.37;100470.44;4987145;28;1267;-20
2023/02/21 08:01:51;;;;;;;;;;;;;;;26.48;22.57;100480.09;4987519;28;1383;-19
2023/02/21 08:04:20;;;;;;;;;;;;;;;26.63;22.66;100469.31;4982719;28;2443;-20
2023/02/21 08:06:45;;;;;;;;;;;;;;;26.43;23.17;100474.41;4984423;28;2751;-19
2023/02/21 08:09:10;;;;;;;;;;;;;;;26.65;22.25;100467.28;4975188;28;2341;-29
2023/02/21 08:11:36;;;;;;;;;;;;;;;26.61;22.12;100471.38;4976857;28;2451;-20
2023/02/21 08:14:02;;;;;;;;;;;;;;;26.50;22.21;100468.13;4983471;28;2211;-19
2023/02/21 08:16:27;;;;;;;;;;;;;;;26.61;22.00;100466.00;4976620;28;2366;-20
2023/02/21 08:18:52;;;;;;;;;;;;;;;26.53;22.32;100465.06;4982448;28;1372;-20
2023/02/21 08:21:18;;;;;;;;;;;;;;;26.24;22.71;100461.28;4989246;28;1783;-19
2023/02/21 08:23:43;;;;;;;;;;;;;;;26.42;22.89;100452.03;4983825;28;1136;-19
2023/02/21 08:26:08;;;;;;;;;;;;;;;26.41;23.02;100450.34;4995648;28;1062;-20
2023/02/21 08:28:33;;;;;;;;;;;;;;;26.52;22.16;100431.03;5001037;28;1947;-19
2023/02/21 08:30:59;;;;;;;;;;;;;;;26.47;22.28;100432.59;5008008;28;1165;-20
2023/02/21 08:33:24;;;;;;;;;;;;;;;26.44;22.16;100417.63;4996901;28;1100;-20
2023/02/21 08:35:49;;;;;;;;;;;;;;;26.50;22.03;100414.19;5011496;28;1092;-20
2023/02/21 08:38:16;;;;;;;;;;;;;;;26.47;21.78;100409.16;4999016;28;1049;-20
2023/02/21 08:40:41;;;;;;;;;;;;;;;26.55;22.37;100413.63;5014693;28;1010;-21
2023/02/21 08:43:07;;;;;;;;;;;;;;;26.54;22.26;100401.16;5004866;28;1141;-21
2023/02/21 08:45:32;;;;;;;;;;;;;;;26.43;22.77;100407.84;5013853;28;1228;-16
2023/02/21 08:47:57;;;;;;;;;;;;;;;26.35;22.55;100394.47;5011838;28;1890;-16
2023/02/21 08:50:23;;;;;;;;;;;;;;;26.41;22.25;100397.25;5004178;28;1012;-15
2023/02/21 08:52:48;;;;;;;;;;;;;;;26.33;22.09;100386.56;5005111;28;1267;-16
2023/02/21 08:55:14;;;;;;;;;;;;;;;26.40;22.38;100384.78;5006464;28;1140;-16
2023/02/21 08:57:39;;;;;;;;;;;;;;;26.41;22.38;100388.31;5012927;28;1202;-16
2023/02/21 09:00:09;;;;;;;;;;;;;;;26.44;22.40;100400.59;5006318;28;1083;-16
2023/02/21 09:02:34;;;;;;;;;;;;;;;26.32;22.52;100392.94;5008554;28;1093;-17
2023/02/21 09:04:59;;;;;;;;;;;;;;;26.44;21.90;100393.34;5007789;28;1152;-15
2023/02/21 09:07:27;;;;;;;;;;;;;;;26.53;21.86;100394.91;5013740;28;1068;-16
2023/02/21 09:09:52;;;;;;;;;;;;;;;26.34;22.36;100400.88;4996439;28;1902;-16
2023/02/21 09:12:18;;;;;;;;;;;;;;;26.38;22.48;100392.22;5016047;28;1168;-16
2023/02/21 09:14:43;;;;;;;;;;;;;;;26.42;22.68;100381.91;5014297;28;1395;-16
2023/02/21 09:17:09;;;;;;;;;;;;;;;26.41;22.56;100385.63;5009825;28;1327;-17
2023/02/21 09:19:34;;;;;;;;;;;;;;;26.29;22.69;100369.06;4991677;28;1240;-16
2023/02/21 09:22:00;;;;;;;;;;;;;;;26.30;22.80;100376.13;5013577;28;1219;-16
2023/02/21 09:24:25;;;;;;;;;;;;;;;26.14;23.22;100369.06;5008199;28;1029;-16
2023/02/21 09:26:54;;;;;;;;;;;;;;;26.21;22.51;100363.75;5017849;28;1100;-16
2023/02/21 09:29:20;;;;;;;;;;;;;;;26.37;22.41;100365.47;5012344;28;1914;-16
2023/02/21 09:31:45;;;;;;;;;;;;;;;26.10;22.97;100356.97;5019239;28;1033;-16
2023/02/21 09:34:10;;;;;;;;;;;;;;;25.83;23.51;100354.72;5019915;28;1092;-16
2023/02/21 09:36:36;;;;;;;;;;;;;;;25.66;23.46;100349.50;5019098;28;1131;-15
2023/02/21 09:39:05;;;;;;;;;;;;;;;25.16;23.75;100338.25;5019342;28;1446;-16
2023/02/21 09:41:30;;;;;;;;;;;;;;;26.46;22.33;100331.94;5019291;28;1167;-15
2023/02/21 09:43:55;;;;;;;;;;;;;;;25.96;22.38;100334.38;5019229;28;1530;-16
2023/02/21 09:46:40;;;;;;;;;;;;;;;25.91;22.02;100332.22;5018985;28;1092;-16
2023/02/21 09:49:17;;;;;;;;;;;;;;;25.88;22.01;100338.84;5001407;28;1911;-16
2023/02/21 09:51:42;;;;;;;;;;;;;;;26.09;22.16;100323.78;5002160;28;1228;-16
2023/02/21 09:54:12;;;;;;;;;;;;;;;26.14;21.91;100325.94;5015050;28;1326;-15
2023/02/21 09:56:38;;;;;;;;;;;;;;;26.26;21.52;100312.78;5012640;28;938;-16
2023/02/21 09:59:08;;;;;;;;;;;;;;;25.92;21.99;100326.66;5001551;28;1066;-16
2023/02/21 10:01:45;;;;;;;;;;;;;;;25.79;22.22;100305.75;5019055;28;1025;-16
2023/02/21 10:04:13;;;;;;;;;;;;;;;25.64;22.19;100304.91;5018843;28;1068;-16
2023/02/21 10:06:41;;;;;;;;;;;;;;;25.90;22.13;100304.47;5019192;28;1068;-16
2023/02/21 10:09:09;;;;;;;;;;;;;;;25.82;21.95;100290.25;5009814;28;1977;-16
2023/02/21 10:11:53;;;;;;;;;;;;;;;25.95;21.54;100295.81;5019104;28;1092;-16
2023/02/21 10:14:18;;;;;;;;;;;;;;;26.27;21.70;100282.13;5000990;28;1154;-16
2023/02/21 10:17:04;;;;;;;;;;;;;;;26.29;21.56;100280.09;5003161;28;1116;-16
2023/02/21 10:19:30;;;;;;;;;;;;;;;26.32;21.49;100273.47;4998984;28;1038;-16
2023/02/21 10:21:58;;;;;;;;;;;;;;;26.25;21.82;100276.94;4998964;28;1061;-17
2023/02/21 10:24:24;;;;;;;;;;;;;;;26.23;21.76;100260.09;4998669;28;1137;-16
2023/02/21 10:26:52;;;;;;;;;;;;;;;25.96;21.81;100256.25;5012488;28;1216;-16
2023/02/21 10:29:21;;;;;;;;;;;;;;;25.89;21.71;100248.88;5011349;28;2213;-16
2023/02/21 10:31:47;;;;;;;;;;;;;;;25.93;22.60;100243.97;4994631;28;1218;-16
2023/02/21 10:34:21;;;;;;;;;;;;;;;26.15;21.91;100239.47;5011737;28;1071;-16
2023/02/21 10:36:47;;;;;;;;;;;;;;;26.35;21.55;100241.59;4993956;28;1086;-16
2023/02/21 10:39:14;;;;;;;;;;;;;;;26.36;21.36;100227.09;5009832;28;1237;-16
2023/02/21 10:41:39;;;;;;;;;;;;;;;26.22;22.10;100222.53;5000618;28;898;-16
2023/02/21 10:44:08;;;;;;;;;;;;;;;26.13;22.36;100200.25;5004887;28;1029;-16
2023/02/21 10:46:34;;;;;;;;;;;;;;;26.20;22.05;100206.56;5006657;28;1032;-16
2023/02/21 10:49:16;;;;;;;;;;;;;;;26.74;22.11;100184.72;4996001;28;1961;-16
2023/02/21 10:51:41;;;;;;;;;;;;;;;26.48;22.16;100194.22;4990218;28;1368;-16
2023/02/21 10:54:19;;;;;;;;;;;;;;;26.25;22.15;100189.81;5008383;28;917;-16
2023/02/21 10:56:44;;;;;;;;;;;;;;;26.38;22.04;100170.25;5003146;28;1077;-16
2023/02/21 10:59:10;;;;;;;;;;;;;;;26.19;22.35;100172.56;5013693;28;1144;-16
2023/02/21 11:01:44;;;;;;;;;;;;;;;26.47;22.01;100166.44;4996720;28;1219;-16
2023/02/21 11:04:19;;;;;;;;;;;;;;;26.20;22.46;100162.56;5011064;28;1425;-16
2023/02/21 11:06:57;;;;;;;;;;;;;;;26.26;22.29;100172.59;4998661;28;1053;-15
2023/02/21 11:09:23;;;;;;;;;;;;;;;26.01;22.75;100143.28;4998348;28;1953;-16
2023/02/21 11:11:48;;;;;;;;;;;;;;;26.27;22.46;100166.19;4998279;28;1115;-16
2023/02/21 11:14:16;;;;;;;;;;;;;;;26.34;22.15;100167.09;4999091;28;1334;-16
2023/02/21 11:16:42;;;;;;;;;;;;;;;26.42;22.29;100152.69;5004877;28;1153;-16
2023/02/21 11:19:10;;;;;;;;;;;;;;;26.23;22.30;100154.94;5002461;28;1096;-16
2023/02/21 11:21:35;;;;;;;;;;;;;;;26.36;22.19;100162.38;4989916;28;1319;-16
2023/02/21 11:24:04;;;;;;;;;;;;;;;26.20;21.86;100163.41;5009364;28;1361;-16
2023/02/21 11:26:29;;;;;;;;;;;;;;;26.36;21.77;100148.88;5012937;28;1154;-16
2023/02/21 11:28:55;;;;;;;;;;;;;;;26.30;21.91;100155.03;5008157;28;1910;-16
2023/02/21 11:31:22;;;;;;;;;;;;;;;26.36;21.55;100150.75;4995466;28;1064;-16
2023/02/21 11:33:50;;;;;;;;;;;;;;;26.27;21.51;100155.41;4995482;28;1230;-17
2023/02/21 11:36:19;;;;;;;;;;;;;;;26.21;22.01;100162.38;4990944;28;1142;-15
2023/02/21 11:38:58;;;;;;;;;;;;;;;26.03;22.16;100155.56;4991706;28;1112;-17
2023/02/21 11:41:33;;;;;;;;;;;;;;;26.07;21.72;100158.72;5009598;28;1205;-17
2023/02/21 11:43:59;;;;;;;;;;;;;;;26.49;21.10;100152.75;5014614;28;1000;-16
2023/02/21 11:46:36;;;;;;;;;;;;;;;26.19;21.67;100150.97;5005212;28;918;-17
2023/02/21 11:49:04;;;;;;;;;;;;;;;26.07;21.78;100139.03;4999077;28;1898;-16
2023/02/21 11:51:36;;;;;;;;;;;;;;;26.29;21.80;100146.09;5006712;28;1225;-16
2023/02/21 11:54:02;;;;;;;;;;;;;;;25.99;21.89;100132.72;4997009;28;1142;-18
2023/02/21 11:56:39;;;;;;;;;;;;;;;26.50;21.81;100136.38;5016754;28;992;-14
2023/02/21 11:59:05;;;;;;;;;;;;;;;26.37;21.66;100130.84;5016256;28;1049;-15
2023/02/21 12:01:33;;;;;;;;;;;;;;;26.51;21.69;100116.44;5016829;28;1061;-15
2023/02/21 12:04:05;;;;;;;;;;;;;;;26.37;21.57;100126.31;5006512;28;1074;-15
2023/02/21 12:06:36;;;;;;;;;;;;;;;26.47;21.53;100125.13;4994110;28;1022;-14
2023/02/21 12:09:01;;;;;;;;;;;;;;;26.29;21.80;100110.22;4997015;28;1898;-15
2023/02/21 12:11:40;;;;;;;;;;;;;;;26.07;22.44;100098.59;4998545;28;1069;-14
2023/02/21 12:14:20;;;;;;;;;;;;;;;26.09;21.84;100094.66;5003586;28;1062;-14
2023/02/21 12:17:03;;;;;;;;;;;;;;;26.10;22.24;100068.56;4987924;28;1011;-14
2023/02/21 12:19:48;;;;;;;;;;;;;;;26.06;21.26;100096.94;4998817;28;1233;-16
2023/02/21 12:22:32;;;;;;;;;;;;;;;25.87;20.96;100096.53;5013812;28;1310;-15
2023/02/21 12:25:03;;;;;;;;;;;;;;;25.96;20.97;100089.97;5015940;28;1309;-15
2023/02/21 12:27:40;;;;;;;;;;;;;;;26.39;19.87;100062.19;5010999;28;1193;-15
2023/02/21 12:30:25;;;;;;;;;;;;;;;26.34;19.04;100082.69;5015678;28;1909;-15
2023/02/21 12:33:09;;;;;;;;;;;;;;;26.25;19.20;100052.31;5015189;28;1153;-14
2023/02/21 12:35:36;;;;;;;;;;;;;;;26.26;18.49;100078.22;5015908;28;1160;-14
2023/02/21 12:38:10;;;;;;;;;;;;;;;26.36;18.49;100059.91;5015858;28;1311;-15
2023/02/21 12:40:59;;;;;;;;;;;;;;;26.61;18.14;100067.56;5015895;28;1315;-15
2023/02/21 12:43:43;;;;;;;;;;;;;;;26.40;18.41;100061.19;5003040;28;1541;-15
2023/02/21 12:46:28;;;;;;;;;;;;;;;25.80;16.71;100067.66;5014084;28;1216;-14
2023/02/21 12:49:12;;;;;;;;;;;;;;;26.31;16.61;100053.41;5001499;28;1934;-15
2023/02/21 12:51:38;;;;;;;;;;;;;;;26.40;16.15;100076.53;5011110;28;1125;-15
2023/02/21 12:54:25;;;;;;;;;;;;;;;26.20;16.45;100054.75;4999079;28;1088;-15
2023/02/21 12:56:52;;;;;;;;;;;;;;;26.42;17.47;100036.72;5002711;28;1200;-15
2023/02/21 12:59:19;;;;;;;;;;;;;;;26.39;17.71;100046.03;5000782;28;894;-14
2023/02/21 13:01:48;;;;;;;;;;;;;;;26.30;18.46;100057.97;5002189;28;1137;-15
2023/02/21 13:04:17;;;;;;;;;;;;;;;26.25;17.64;100066.63;5001931;28;1228;-15
2023/02/21 13:06:45;;;;;;;;;;;;;;;25.39;17.56;100071.69;5019521;28;1189;-16
2023/02/21 13:09:16;;;;;;;;;;;;;;;25.36;18.44;100082.03;5001838;28;1902;-15
2023/02/21 13:11:42;;;;;;;;;;;;;;;25.67;18.41;100078.28;5019668;28;1204;-15
2023/02/21 13:14:12;;;;;;;;;;;;;;;25.63;19.27;100087.75;5019059;28;1229;-15
2023/02/21 13:16:37;;;;;;;;;;;;;;;25.92;19.22;100083.31;5001803;28;1193;-15
2023/02/21 13:19:03;;;;;;;;;;;;;;;26.02;19.32;100091.09;5019838;28;1280;-15
2023/02/21 13:21:32;;;;;;;;;;;;;;;26.17;19.66;100094.53;5001570;28;1116;-15
2023/02/21 13:24:31;;;;;;;;;;;;;;;26.10;19.97;100093.66;5013835;28;1068;-15
2023/02/21 13:26:59;;;;;;;;;;;;;;;25.99;20.03;100084.19;5017485;28;1021;-15
2023/02/21 13:29:28;;;;;;;;;;;;;;;26.20;20.23;100068.22;5005982;28;2000;-15
2023/02/21 13:32:00;;;;;;;;;;;;;;;26.16;20.43;100065.06;4983226;28;1044;-15
2023/02/21 13:34:27;;;;;;;;;;;;;;;26.46;20.13;100064.13;4983016;28;1022;-15
2023/02/21 13:36:52;;;;;;;;;;;;;;;26.40;20.21;100071.13;4999929;28;1009;-15
2023/02/21 13:39:20;;;;;;;;;;;;;;;26.44;20.48;100056.25;4995433;28;1095;-15
2023/02/21 13:41:46;;;;;;;;;;;;;;;26.75;20.12;100054.16;4999844;28;1116;-15
2023/02/21 13:44:12;;;;;;;;;;;;;;;26.81;20.20;100061.47;5012722;28;1152;-15
2023/02/21 13:46:37;;;;;;;;;;;;;;;26.55;20.55;100068.34;5007703;28;955;-14
2023/02/21 13:49:21;;;;;;;;;;;;;;;26.37;21.08;100074.22;5004433;28;1910;-13
2023/02/21 13:51:47;;;;;;;;;;;;;;;26.39;21.33;100074.88;5018720;28;1224;-15
2023/02/21 13:54:12;;;;;;;;;;;;;;;26.46;21.13;100085.72;5018723;28;1240;-14
2023/02/21 13:56:43;;;;;;;;;;;;;;;26.50;21.65;100071.63;5000198;28;1270;-14
2023/02/21 13:59:27;;;;;;;;;;;;;;;26.55;21.49;100073.75;4982812;28;1187;-14
2023/02/21 14:02:12;;;;;;;;;;;;;;;26.56;21.43;100066.50;5013810;28;1164;-14
2023/02/21 14:04:56;;;;;;;;;;;;;;;26.65;20.96;100068.84;5018967;28;1330;-14
2023/02/21 14:07:38;;;;;;;;;;;;;;;26.68;20.96;100054.13;5005972;28;2545;-14
2023/02/21 14:10:03;;;;;;;;;;;;;;;26.64;21.20;100067.16;5004365;28;3321;-14
2023/02/21 14:12:28;;;;;;;;;;;;;;;26.51;21.80;100067.06;5000202;28;1248;-14
2023/02/21 14:15:05;;;;;;;;;;;;;;;26.56;21.75;100061.91;5001236;28;1054;-15
2023/02/21 14:17:30;;;;;;;;;;;;;;;26.46;21.46;100064.94;5001510;28;954;-15
2023/02/21 14:19:58;;;;;;;;;;;;;;;26.46;21.77;100074.94;5005565;28;1219;-14
2023/02/21 14:22:24;;;;;;;;;;;;;;;26.58;21.83;100081.44;5014709;28;1057;-15
2023/02/21 14:24:50;;;;;;;;;;;;;;;26.60;21.67;100081.25;4992047;28;1201;-15
2023/02/21 14:27:15;;;;;;;;;;;;;;;26.29;22.02;100070.59;5007905;28;1216;-14
2023/02/21 14:29:43;;;;;;;;;;;;;;;26.33;21.79;100095.34;5009881;28;1926;-15
2023/02/21 14:32:08;;;;;;;;;;;;;;;26.37;21.89;100090.41;5013487;28;1326;-15
2023/02/21 14:34:38;;;;;;;;;;;;;;;26.47;21.80;100092.75;5005497;28;1189;-14
2023/02/21 14:37:18;;;;;;;;;;;;;;;26.49;21.94;100094.22;5013158;28;1153;-14
2023/02/21 14:39:44;;;;;;;;;;;;;;;26.47;21.96;100095.47;4997172;28;1053;-14
2023/02/21 14:42:28;;;;;;;;;;;;;;;26.48;21.77;100099.81;5002420;28;1107;-15
2023/02/21 14:45:14;;;;;;;;;;;;;;;26.48;21.95;100100.66;5013055;28;1240;-15
2023/02/21 14:47:48;;;;;;;;;;;;;;;26.51;21.88;100099.41;4999137;28;1261;-15
2023/02/21 14:50:23;;;;;;;;;;;;;;;26.47;22.10;100099.00;5011877;28;1883;-15
2023/02/21 14:52:48;;;;;;;;;;;;;;;26.47;22.19;100104.41;5002795;28;1613;-15
2023/02/21 14:55:13;;;;;;;;;;;;;;;26.54;21.56;100109.84;4998741;28;1068;-15
2023/02/21 14:57:57;;;;;;;;;;;;;;;26.49;21.29;100102.31;5011192;28;1212;-15
2023/02/21 15:00:43;;;;;;;;;;;;;;;26.37;20.76;100122.75;4997551;28;1045;-14
2023/02/21 15:03:13;;;;;;;;;;;;;;;26.31;21.10;100110.03;4991840;28;1121;-15
2023/02/21 15:05:44;;;;;;;;;;;;;;;26.51;21.63;100111.06;4999223;28;1185;-15
2023/02/21 15:08:09;;;;;;;;;;;;;;;27.13;20.75;100123.16;5015886;28;1890;-15
2023/02/21 15:10:41;;;;;;;;;;;;;;;27.39;20.62;100124.34;5011876;28;1030;-15